sensor_id;sensor_type;location;lat;lon;timestamp;P1;durP1;ratioP1;P2;durP2;ratioP2
43327;SDS011;28923;45.412;10.852;2023-06-14T04:32:01;2.58;;;2.38;;
43327;SDS011;28923;45.412;10.852;2023-06-14T04:34:27;2.47;;;2.28;;
43327;SDS011;28923;45.412;10.852;2023-06-14T04:36:58;5.70;;;2.30;;
43327;SDS011;28923;45.412;10.852;2023-06-14T04:39:34;4.25;;;3.55;;
43327;SDS011;28923;45.412;10.852;2023-06-14T04:42:01;9.63;;;4.63;;
43327;SDS011;28923;45.412;10.852;2023-06-14T04:44:29;7.30;;;4.75;;
43327;SDS011;28923;45.412;10.852;2023-06-14T04:46:59;5.15;;;4.53;;
43327;SDS011;28923;45.412;10.852;2023-06-14T04:49:24;7.78;;;4.70;;
43327;SDS011;28923;45.412;10.852;2023-06-14T04:51:52;6.68;;;3.88;;
43327;SDS011;28923;45.412;10.852;2023-06-14T04:54:23;6.53;;;4.15;;
43327;SDS011;28923;45.412;10.852;2023-06-14T04:56:51;6.13;;;4.00;;
43327;SDS011;28923;45.412;10.852;2023-06-14T04:59:17;5.53;;;3.60;;
43327;SDS011;28923;45.412;10.852;2023-06-14T05:01:43;4.80;;;4.20;;
43327;SDS011;28923;45.412;10.852;2023-06-14T05:04:17;8.25;;;4.45;;
43327;SDS011;28923;45.412;10.852;2023-06-14T05:06:44;8.70;;;5.50;;
43327;SDS011;28923;45.412;10.852;2023-06-14T05:09:10;6.43;;;4.43;;
43327;SDS011;28923;45.412;10.852;2023-06-14T05:11:36;6.03;;;4.05;;
43327;SDS011;28923;45.412;10.852;2023-06-14T05:14:01;6.38;;;4.20;;
43327;SDS011;28923;45.412;10.852;2023-06-14T05:16:27;8.38;;;4.95;;
43327;SDS011;28923;45.412;10.852;2023-06-14T05:18:54;7.10;;;4.25;;
43327;SDS011;28923;45.412;10.852;2023-06-14T05:21:20;6.70;;;4.57;;
43327;SDS011;28923;45.412;10.852;2023-06-14T05:23:45;7.25;;;4.05;;
43327;SDS011;28923;45.412;10.852;2023-06-14T05:26:11;8.88;;;4.10;;
43327;SDS011;28923;45.412;10.852;2023-06-14T05:28:36;5.15;;;3.20;;
43327;SDS011;28923;45.412;10.852;2023-06-14T05:31:02;6.07;;;3.30;;
43327;SDS011;28923;45.412;10.852;2023-06-14T05:33:27;4.85;;;3.30;;
43327;SDS011;28923;45.412;10.852;2023-06-14T05:35:53;5.85;;;3.67;;
43327;SDS011;28923;45.412;10.852;2023-06-14T05:38:18;6.72;;;3.10;;
43327;SDS011;28923;45.412;10.852;2023-06-14T05:40:44;5.13;;;3.13;;
43327;SDS011;28923;45.412;10.852;2023-06-14T05:43:10;7.45;;;3.60;;
43327;SDS011;28923;45.412;10.852;2023-06-14T05:45:35;10.48;;;3.13;;
43327;SDS011;28923;45.412;10.852;2023-06-14T05:48:01;4.80;;;2.70;;
43327;SDS011;28923;45.412;10.852;2023-06-14T05:50:26;6.55;;;3.38;;
43327;SDS011;28923;45.412;10.852;2023-06-14T05:52:52;6.05;;;2.97;;
43327;SDS011;28923;45.412;10.852;2023-06-14T05:55:18;10.90;;;3.08;;
43327;SDS011;28923;45.412;10.852;2023-06-14T05:57:43;8.25;;;3.20;;
43327;SDS011;28923;45.412;10.852;2023-06-14T06:00:09;4.90;;;3.35;;
43327;SDS011;28923;45.412;10.852;2023-06-14T06:02:44;5.32;;;3.90;;
43327;SDS011;28923;45.412;10.852;2023-06-14T06:05:10;9.82;;;5.40;;
43327;SDS011;28923;45.412;10.852;2023-06-14T06:07:36;8.40;;;5.35;;
43327;SDS011;28923;45.412;10.852;2023-06-14T06:10:02;17.85;;;10.40;;
43327;SDS011;28923;45.412;10.852;2023-06-14T06:12:28;11.68;;;7.28;;
43327;SDS011;28923;45.412;10.852;2023-06-14T06:14:53;11.30;;;7.18;;
43327;SDS011;28923;45.412;10.852;2023-06-14T06:17:18;7.97;;;5.32;;
43327;SDS011;28923;45.412;10.852;2023-06-14T06:19:44;6.68;;;5.22;;
43327;SDS011;28923;45.412;10.852;2023-06-14T06:22:09;6.82;;;5.18;;
43327;SDS011;28923;45.412;10.852;2023-06-14T06:24:35;5.68;;;4.18;;
43327;SDS011;28923;45.412;10.852;2023-06-14T06:27:00;6.15;;;4.72;;
43327;SDS011;28923;45.412;10.852;2023-06-14T06:29:26;6.50;;;4.40;;
43327;SDS011;28923;45.412;10.852;2023-06-14T06:31:51;7.65;;;4.40;;
43327;SDS011;28923;45.412;10.852;2023-06-14T06:34:17;5.90;;;4.40;;
43327;SDS011;28923;45.412;10.852;2023-06-14T06:36:42;8.75;;;4.05;;
43327;SDS011;28923;45.412;10.852;2023-06-14T06:39:07;13.13;;;4.75;;
43327;SDS011;28923;45.412;10.852;2023-06-14T06:41:36;5.90;;;3.92;;
43327;SDS011;28923;45.412;10.852;2023-06-14T06:44:02;12.45;;;4.65;;
43327;SDS011;28923;45.412;10.852;2023-06-14T06:46:28;10.55;;;4.82;;
43327;SDS011;28923;45.412;10.852;2023-06-14T06:48:53;14.43;;;4.22;;
43327;SDS011;28923;45.412;10.852;2023-06-14T06:51:19;14.98;;;4.63;;
43327;SDS011;28923;45.412;10.852;2023-06-14T06:53:51;8.50;;;3.92;;
43327;SDS011;28923;45.412;10.852;2023-06-14T06:56:17;8.13;;;3.97;;
43327;SDS011;28923;45.412;10.852;2023-06-14T06:58:42;7.82;;;3.88;;
43327;SDS011;28923;45.412;10.852;2023-06-14T07:01:07;7.30;;;3.58;;
43327;SDS011;28923;45.412;10.852;2023-06-14T07:03:34;9.32;;;3.65;;
43327;SDS011;28923;45.412;10.852;2023-06-14T07:06:00;7.60;;;3.60;;
43327;SDS011;28923;45.412;10.852;2023-06-14T07:08:26;5.65;;;2.67;;
43327;SDS011;28923;45.412;10.852;2023-06-14T07:10:52;9.70;;;3.42;;
43327;SDS011;28923;45.412;10.852;2023-06-14T07:13:17;6.30;;;3.13;;
43327;SDS011;28923;45.412;10.852;2023-06-14T07:15:43;5.82;;;3.10;;
43327;SDS011;28923;45.412;10.852;2023-06-14T07:18:08;5.80;;;3.30;;
43327;SDS011;28923;45.412;10.852;2023-06-14T07:20:34;5.03;;;2.83;;
43327;SDS011;28923;45.412;10.852;2023-06-14T07:22:59;4.82;;;3.00;;
43327;SDS011;28923;45.412;10.852;2023-06-14T07:25:25;6.45;;;3.17;;
43327;SDS011;28923;45.412;10.852;2023-06-14T07:27:51;6.15;;;3.22;;
43327;SDS011;28923;45.412;10.852;2023-06-14T07:30:16;5.32;;;3.05;;
43327;SDS011;28923;45.412;10.852;2023-06-14T07:32:42;7.22;;;3.55;;
43327;SDS011;28923;45.412;10.852;2023-06-14T07:35:07;6.28;;;2.88;;
43327;SDS011;28923;45.412;10.852;2023-06-14T07:37:33;5.22;;;3.03;;
43327;SDS011;28923;45.412;10.852;2023-06-14T07:39:58;8.30;;;3.40;;
43327;SDS011;28923;45.412;10.852;2023-06-14T07:42:23;6.85;;;2.97;;
43327;SDS011;28923;45.412;10.852;2023-06-14T07:44:49;5.97;;;3.15;;
43327;SDS011;28923;45.412;10.852;2023-06-14T07:47:16;4.05;;;3.13;;
43327;SDS011;28923;45.412;10.852;2023-06-14T07:49:41;7.13;;;3.00;;
43327;SDS011;28923;45.412;10.852;2023-06-14T07:52:07;6.63;;;2.83;;
43327;SDS011;28923;45.412;10.852;2023-06-14T07:54:32;5.97;;;3.22;;
43327;SDS011;28923;45.412;10.852;2023-06-14T07:56:57;4.50;;;2.60;;
43327;SDS011;28923;45.412;10.852;2023-06-14T07:59:25;5.18;;;2.90;;
43327;SDS011;28923;45.412;10.852;2023-06-14T08:01:51;4.55;;;3.30;;
43327;SDS011;28923;45.412;10.852;2023-06-14T08:04:16;6.40;;;2.83;;
43327;SDS011;28923;45.412;10.852;2023-06-14T08:06:42;4.57;;;3.03;;
43327;SDS011;28923;45.412;10.852;2023-06-14T08:09:11;5.20;;;2.75;;
43327;SDS011;28923;45.412;10.852;2023-06-14T08:11:37;5.63;;;3.15;;
43327;SDS011;28923;45.412;10.852;2023-06-14T08:14:03;3.15;;;2.50;;
43327;SDS011;28923;45.412;10.852;2023-06-14T08:16:28;7.15;;;3.10;;
43327;SDS011;28923;45.412;10.852;2023-06-14T08:18:54;4.45;;;3.38;;
43327;SDS011;28923;45.412;10.852;2023-06-14T08:21:20;5.57;;;3.28;;
43327;SDS011;28923;45.412;10.852;2023-06-14T08:23:45;6.22;;;3.08;;
43327;SDS011;28923;45.412;10.852;2023-06-14T08:26:10;5.00;;;2.83;;
43327;SDS011;28923;45.412;10.852;2023-06-14T08:28:36;5.53;;;3.28;;
43327;SDS011;28923;45.412;10.852;2023-06-14T08:31:01;4.53;;;3.33;;
43327;SDS011;28923;45.412;10.852;2023-06-14T08:33:27;5.97;;;3.40;;
43327;SDS011;28923;45.412;10.852;2023-06-14T08:35:53;4.57;;;2.88;;
43327;SDS011;28923;45.412;10.852;2023-06-14T08:38:18;7.95;;;3.47;;
43327;SDS011;28923;45.412;10.852;2023-06-14T08:40:44;3.75;;;3.13;;
43327;SDS011;28923;45.412;10.852;2023-06-14T08:43:10;5.68;;;3.60;;
43327;SDS011;28923;45.412;10.852;2023-06-14T08:45:35;6.32;;;3.70;;
43327;SDS011;28923;45.412;10.852;2023-06-14T08:48:01;6.30;;;3.33;;
43327;SDS011;28923;45.412;10.852;2023-06-14T08:50:27;5.93;;;3.35;;
43327;SDS011;28923;45.412;10.852;2023-06-14T08:52:57;6.32;;;3.17;;
43327;SDS011;28923;45.412;10.852;2023-06-14T08:55:27;4.38;;;3.22;;
43327;SDS011;28923;45.412;10.852;2023-06-14T08:57:53;5.55;;;3.38;;
43327;SDS011;28923;45.412;10.852;2023-06-14T09:00:19;4.53;;;3.03;;
43327;SDS011;28923;45.412;10.852;2023-06-14T09:02:46;5.13;;;4.00;;
43327;SDS011;28923;45.412;10.852;2023-06-14T09:05:11;9.02;;;3.50;;
43327;SDS011;28923;45.412;10.852;2023-06-14T09:07:41;5.28;;;3.63;;
43327;SDS011;28923;45.412;10.852;2023-06-14T09:10:07;5.88;;;3.90;;
43327;SDS011;28923;45.412;10.852;2023-06-14T09:12:33;5.18;;;3.35;;
43327;SDS011;28923;45.412;10.852;2023-06-14T09:14:59;8.63;;;3.55;;
43327;SDS011;28923;45.412;10.852;2023-06-14T09:17:25;5.15;;;3.15;;
43327;SDS011;28923;45.412;10.852;2023-06-14T09:19:50;4.82;;;3.22;;
43327;SDS011;28923;45.412;10.852;2023-06-14T09:22:16;4.55;;;3.38;;
43327;SDS011;28923;45.412;10.852;2023-06-14T09:24:41;6.82;;;3.58;;
43327;SDS011;28923;45.412;10.852;2023-06-14T09:27:07;8.07;;;3.28;;
43327;SDS011;28923;45.412;10.852;2023-06-14T09:29:33;5.07;;;3.25;;
43327;SDS011;28923;45.412;10.852;2023-06-14T09:31:58;5.07;;;3.35;;
43327;SDS011;28923;45.412;10.852;2023-06-14T09:34:24;5.03;;;3.60;;
43327;SDS011;28923;45.412;10.852;2023-06-14T09:36:49;5.65;;;3.28;;
43327;SDS011;28923;45.412;10.852;2023-06-14T09:39:16;3.60;;;3.00;;
43327;SDS011;28923;45.412;10.852;2023-06-14T09:41:42;4.32;;;3.30;;
43327;SDS011;28923;45.412;10.852;2023-06-14T09:44:08;7.47;;;3.50;;
43327;SDS011;28923;45.412;10.852;2023-06-14T09:46:35;5.05;;;3.58;;
43327;SDS011;28923;45.412;10.852;2023-06-14T09:49:01;3.47;;;2.58;;
43327;SDS011;28923;45.412;10.852;2023-06-14T09:51:27;3.55;;;2.83;;
43327;SDS011;28923;45.412;10.852;2023-06-14T09:53:52;7.03;;;2.95;;
43327;SDS011;28923;45.412;10.852;2023-06-14T09:56:29;6.20;;;3.15;;
43327;SDS011;28923;45.412;10.852;2023-06-14T09:58:58;4.97;;;3.10;;
43327;SDS011;28923;45.412;10.852;2023-06-14T10:01:24;4.22;;;2.58;;
43327;SDS011;28923;45.412;10.852;2023-06-14T10:03:56;3.63;;;2.95;;
43327;SDS011;28923;45.412;10.852;2023-06-14T10:06:23;3.70;;;2.85;;
43327;SDS011;28923;45.412;10.852;2023-06-14T10:08:50;5.72;;;3.08;;
43327;SDS011;28923;45.412;10.852;2023-06-14T10:11:16;4.50;;;2.78;;
43327;SDS011;28923;45.412;10.852;2023-06-14T10:13:42;5.00;;;2.90;;
43327;SDS011;28923;45.412;10.852;2023-06-14T10:16:17;5.05;;;2.60;;
43327;SDS011;28923;45.412;10.852;2023-06-14T10:21:16;4.00;;;2.33;;
43327;SDS011;28923;45.412;10.852;2023-06-14T10:23:42;5.23;;;2.80;;
43327;SDS011;28923;45.412;10.852;2023-06-14T10:26:08;3.75;;;2.60;;
43327;SDS011;28923;45.412;10.852;2023-06-14T10:28:36;4.63;;;2.90;;
43327;SDS011;28923;45.412;10.852;2023-06-14T10:33:31;7.63;;;3.00;;
43327;SDS011;28923;45.412;10.852;2023-06-14T10:38:37;4.95;;;2.78;;
43327;SDS011;28923;45.412;10.852;2023-06-14T10:41:04;4.70;;;2.95;;
43327;SDS011;28923;45.412;10.852;2023-06-14T10:43:30;5.40;;;2.80;;
43327;SDS011;28923;45.412;10.852;2023-06-14T10:48:40;4.25;;;2.85;;
43327;SDS011;28923;45.412;10.852;2023-06-14T10:51:05;3.17;;;2.63;;
43327;SDS011;28923;45.412;10.852;2023-06-14T10:53:39;5.03;;;2.65;;
43327;SDS011;28923;45.412;10.852;2023-06-14T10:56:08;3.90;;;2.60;;
43327;SDS011;28923;45.412;10.852;2023-06-14T10:58:33;3.25;;;2.53;;
43327;SDS011;28923;45.412;10.852;2023-06-14T11:00:59;2.90;;;2.50;;
43327;SDS011;28923;45.412;10.852;2023-06-14T11:03:43;3.97;;;2.63;;
43327;SDS011;28923;45.412;10.852;2023-06-14T11:06:15;4.75;;;2.45;;
43327;SDS011;28923;45.412;10.852;2023-06-14T11:11:24;4.97;;;2.28;;
43327;SDS011;28923;45.412;10.852;2023-06-14T11:13:54;2.83;;;2.33;;
43327;SDS011;28923;45.412;10.852;2023-06-14T11:16:20;2.90;;;2.20;;
43327;SDS011;28923;45.412;10.852;2023-06-14T11:18:45;3.22;;;2.13;;
43327;SDS011;28923;45.412;10.852;2023-06-14T11:21:11;3.83;;;2.17;;
43327;SDS011;28923;45.412;10.852;2023-06-14T11:23:36;3.65;;;2.20;;
43327;SDS011;28923;45.412;10.852;2023-06-14T11:26:02;3.13;;;2.35;;
43327;SDS011;28923;45.412;10.852;2023-06-14T11:28:38;2.50;;;1.83;;
43327;SDS011;28923;45.412;10.852;2023-06-14T11:31:05;2.83;;;2.20;;
43327;SDS011;28923;45.412;10.852;2023-06-14T11:33:30;3.53;;;2.22;;
43327;SDS011;28923;45.412;10.852;2023-06-14T11:35:56;2.85;;;2.22;;
43327;SDS011;28923;45.412;10.852;2023-06-14T11:38:21;2.25;;;1.98;;
43327;SDS011;28923;45.412;10.852;2023-06-14T11:40:46;2.80;;;2.10;;
43327;SDS011;28923;45.412;10.852;2023-06-14T11:43:12;2.45;;;2.25;;
43327;SDS011;28923;45.412;10.852;2023-06-14T11:45:39;2.58;;;2.00;;
43327;SDS011;28923;45.412;10.852;2023-06-14T11:48:06;3.70;;;2.25;;
43327;SDS011;28923;45.412;10.852;2023-06-14T11:50:31;2.40;;;2.13;;
43327;SDS011;28923;45.412;10.852;2023-06-14T11:53:01;2.30;;;2.10;;
43327;SDS011;28923;45.412;10.852;2023-06-14T11:55:32;2.75;;;2.00;;
43327;SDS011;28923;45.412;10.852;2023-06-14T11:57:57;2.05;;;1.85;;
43327;SDS011;28923;45.412;10.852;2023-06-14T12:00:26;2.95;;;2.30;;
43327;SDS011;28923;45.412;10.852;2023-06-14T12:02:55;2.60;;;2.03;;
43327;SDS011;28923;45.412;10.852;2023-06-14T12:05:21;2.20;;;2.00;;
43327;SDS011;28923;45.412;10.852;2023-06-14T12:07:47;2.08;;;1.88;;
43327;SDS011;28923;45.412;10.852;2023-06-14T12:10:13;3.13;;;1.88;;
43327;SDS011;28923;45.412;10.852;2023-06-14T12:12:39;2.25;;;1.90;;
43327;SDS011;28923;45.412;10.852;2023-06-14T12:15:06;2.58;;;1.83;;
43327;SDS011;28923;45.412;10.852;2023-06-14T12:17:35;2.05;;;1.85;;
43327;SDS011;28923;45.412;10.852;2023-06-14T12:20:05;2.30;;;2.10;;
43327;SDS011;28923;45.412;10.852;2023-06-14T12:22:33;2.67;;;2.08;;
43327;SDS011;28923;45.412;10.852;2023-06-14T12:24:59;1.75;;;1.63;;
43327;SDS011;28923;45.412;10.852;2023-06-14T12:27:25;2.28;;;2.08;;
43327;SDS011;28923;45.412;10.852;2023-06-14T12:30:03;4.50;;;2.17;;
43327;SDS011;28923;45.412;10.852;2023-06-14T12:32:28;2.13;;;1.95;;
43327;SDS011;28923;45.412;10.852;2023-06-14T12:34:55;1.88;;;1.63;;
43327;SDS011;28923;45.412;10.852;2023-06-14T12:37:20;2.10;;;1.90;;
43327;SDS011;28923;45.412;10.852;2023-06-14T12:39:45;2.45;;;2.05;;
43327;SDS011;28923;45.412;10.852;2023-06-14T12:42:11;2.38;;;1.80;;
43327;SDS011;28923;45.412;10.852;2023-06-14T12:44:38;2.13;;;1.95;;
43327;SDS011;28923;45.412;10.852;2023-06-14T12:47:06;2.10;;;1.90;;
43327;SDS011;28923;45.412;10.852;2023-06-14T12:49:31;2.67;;;2.22;;
43327;SDS011;28923;45.412;10.852;2023-06-14T12:51:57;1.88;;;1.63;;
43327;SDS011;28923;45.412;10.852;2023-06-14T12:54:22;1.90;;;1.60;;
43327;SDS011;28923;45.412;10.852;2023-06-14T12:56:50;5.40;;;1.98;;
43327;SDS011;28923;45.412;10.852;2023-06-14T12:59:17;2.47;;;1.80;;
43327;SDS011;28923;45.412;10.852;2023-06-14T13:01:42;2.00;;;1.80;;
43327;SDS011;28923;45.412;10.852;2023-06-14T13:04:07;2.03;;;1.70;;
43327;SDS011;28923;45.412;10.852;2023-06-14T13:06:33;2.00;;;1.80;;
43327;SDS011;28923;45.412;10.852;2023-06-14T13:08:58;2.47;;;2.03;;
43327;SDS011;28923;45.412;10.852;2023-06-14T13:11:24;3.40;;;2.00;;
43327;SDS011;28923;45.412;10.852;2023-06-14T13:13:49;1.90;;;1.70;;
43327;SDS011;28923;45.412;10.852;2023-06-14T13:16:15;2.38;;;1.80;;
43327;SDS011;28923;45.412;10.852;2023-06-14T13:18:40;2.83;;;2.10;;
43327;SDS011;28923;45.412;10.852;2023-06-14T13:21:06;2.00;;;1.80;;
43327;SDS011;28923;45.412;10.852;2023-06-14T13:23:31;1.80;;;1.67;;
43327;SDS011;28923;45.412;10.852;2023-06-14T13:25:56;3.83;;;1.83;;
43327;SDS011;28923;45.412;10.852;2023-06-14T13:28:22;2.40;;;1.80;;
43327;SDS011;28923;45.412;10.852;2023-06-14T13:30:47;2.20;;;2.00;;
43327;SDS011;28923;45.412;10.852;2023-06-14T13:33:13;1.92;;;1.73;;
43327;SDS011;28923;45.412;10.852;2023-06-14T13:35:39;2.70;;;1.90;;
43327;SDS011;28923;45.412;10.852;2023-06-14T13:38:04;1.80;;;1.67;;
43327;SDS011;28923;45.412;10.852;2023-06-14T13:40:30;2.38;;;1.83;;
43327;SDS011;28923;45.412;10.852;2023-06-14T13:42:55;1.80;;;1.70;;
43327;SDS011;28923;45.412;10.852;2023-06-14T13:45:21;2.00;;;1.80;;
43327;SDS011;28923;45.412;10.852;2023-06-14T13:47:46;2.03;;;1.80;;
43327;SDS011;28923;45.412;10.852;2023-06-14T13:50:13;1.90;;;1.63;;
43327;SDS011;28923;45.412;10.852;2023-06-14T13:52:39;2.47;;;1.85;;
43327;SDS011;28923;45.412;10.852;2023-06-14T13:55:04;2.25;;;1.63;;
43327;SDS011;28923;45.412;10.852;2023-06-14T13:57:30;2.05;;;1.70;;
43327;SDS011;28923;45.412;10.852;2023-06-14T13:59:55;2.05;;;1.85;;
43327;SDS011;28923;45.412;10.852;2023-06-14T14:02:26;2.05;;;1.75;;
43327;SDS011;28923;45.412;10.852;2023-06-14T14:04:51;2.25;;;1.90;;
43327;SDS011;28923;45.412;10.852;2023-06-14T14:07:18;2.17;;;1.70;;
43327;SDS011;28923;45.412;10.852;2023-06-14T14:09:45;1.88;;;1.77;;
43327;SDS011;28923;45.412;10.852;2023-06-14T14:12:11;1.92;;;1.70;;
43327;SDS011;28923;45.412;10.852;2023-06-14T14:14:36;2.10;;;1.90;;
43327;SDS011;28923;45.412;10.852;2023-06-14T14:17:02;2.58;;;1.70;;
43327;SDS011;28923;45.412;10.852;2023-06-14T14:19:27;2.70;;;2.10;;
43327;SDS011;28923;45.412;10.852;2023-06-14T14:21:53;4.55;;;1.83;;
43327;SDS011;28923;45.412;10.852;2023-06-14T14:24:21;2.88;;;1.90;;
43327;SDS011;28923;45.412;10.852;2023-06-14T14:26:46;5.70;;;1.80;;
43327;SDS011;28923;45.412;10.852;2023-06-14T14:29:16;2.75;;;1.95;;
43327;SDS011;28923;45.412;10.852;2023-06-14T14:31:42;1.80;;;1.70;;
43327;SDS011;28923;45.412;10.852;2023-06-14T14:34:07;2.08;;;1.58;;
43327;SDS011;28923;45.412;10.852;2023-06-14T14:36:33;1.85;;;1.65;;
43327;SDS011;28923;45.412;10.852;2023-06-14T14:39:01;2.97;;;1.80;;
43327;SDS011;28923;45.412;10.852;2023-06-14T14:41:27;2.08;;;1.80;;
43327;SDS011;28923;45.412;10.852;2023-06-14T14:43:52;2.88;;;2.00;;
43327;SDS011;28923;45.412;10.852;2023-06-14T14:46:17;3.47;;;1.80;;
43327;SDS011;28923;45.412;10.852;2023-06-14T14:48:43;3.80;;;1.75;;
43327;SDS011;28923;45.412;10.852;2023-06-14T14:51:08;2.30;;;1.50;;
43327;SDS011;28923;45.412;10.852;2023-06-14T14:53:33;3.28;;;1.75;;
43327;SDS011;28923;45.412;10.852;2023-06-14T14:55:59;3.47;;;1.70;;
43327;SDS011;28923;45.412;10.852;2023-06-14T14:58:25;2.25;;;1.70;;
43327;SDS011;28923;45.412;10.852;2023-06-14T15:00:50;2.42;;;1.85;;
43327;SDS011;28923;45.412;10.852;2023-06-14T15:03:16;5.03;;;2.00;;
43327;SDS011;28923;45.412;10.852;2023-06-14T15:05:41;2.55;;;1.80;;
43327;SDS011;28923;45.412;10.852;2023-06-14T15:08:06;2.15;;;1.73;;
43327;SDS011;28923;45.412;10.852;2023-06-14T15:10:38;3.60;;;2.00;;
43327;SDS011;28923;45.412;10.852;2023-06-14T15:13:06;1.88;;;1.60;;
43327;SDS011;28923;45.412;10.852;2023-06-14T15:15:33;3.22;;;1.88;;
43327;SDS011;28923;45.412;10.852;2023-06-14T15:17:58;2.50;;;1.80;;
43327;SDS011;28923;45.412;10.852;2023-06-14T15:20:25;2.03;;;1.85;;
43327;SDS011;28923;45.412;10.852;2023-06-14T15:22:50;2.03;;;1.85;;
43327;SDS011;28923;45.412;10.852;2023-06-14T15:25:16;2.40;;;1.92;;
43327;SDS011;28923;45.412;10.852;2023-06-14T15:27:41;2.35;;;1.80;;
43327;SDS011;28923;45.412;10.852;2023-06-14T15:30:07;2.30;;;1.90;;
43327;SDS011;28923;45.412;10.852;2023-06-14T15:32:32;4.03;;;2.20;;
43327;SDS011;28923;45.412;10.852;2023-06-14T15:34:58;4.03;;;1.90;;
43327;SDS011;28923;45.412;10.852;2023-06-14T15:37:23;1.65;;;1.55;;
43327;SDS011;28923;45.412;10.852;2023-06-14T15:39:48;1.73;;;1.63;;
43327;SDS011;28923;45.412;10.852;2023-06-14T15:42:14;2.10;;;1.70;;
43327;SDS011;28923;45.412;10.852;2023-06-14T15:44:39;2.00;;;1.80;;
43327;SDS011;28923;45.412;10.852;2023-06-14T15:47:06;2.50;;;1.77;;
43327;SDS011;28923;45.412;10.852;2023-06-14T15:49:32;2.25;;;1.80;;
43327;SDS011;28923;45.412;10.852;2023-06-14T15:51:57;1.70;;;1.60;;
43327;SDS011;28923;45.412;10.852;2023-06-14T15:54:23;2.10;;;1.73;;
43327;SDS011;28923;45.412;10.852;2023-06-14T15:56:48;2.00;;;1.80;;
43327;SDS011;28923;45.412;10.852;2023-06-14T15:59:14;1.88;;;1.77;;
43327;SDS011;28923;45.412;10.852;2023-06-14T16:01:39;4.72;;;2.05;;
43327;SDS011;28923;45.412;10.852;2023-06-14T16:04:05;2.05;;;1.83;;
43327;SDS011;28923;45.412;10.852;2023-06-14T16:06:30;2.28;;;2.08;;
43327;SDS011;28923;45.412;10.852;2023-06-14T16:08:57;1.85;;;1.75;;
43327;SDS011;28923;45.412;10.852;2023-06-14T16:11:23;2.22;;;2.03;;
43327;SDS011;28923;45.412;10.852;2023-06-14T16:13:48;2.63;;;1.92;;
43327;SDS011;28923;45.412;10.852;2023-06-14T16:16:14;2.47;;;2.08;;
43327;SDS011;28923;45.412;10.852;2023-06-14T16:18:39;2.00;;;1.83;;
43327;SDS011;28923;45.412;10.852;2023-06-14T16:21:04;1.80;;;1.70;;
43327;SDS011;28923;45.412;10.852;2023-06-14T16:23:34;2.80;;;1.90;;
43327;SDS011;28923;45.412;10.852;2023-06-14T16:25:59;2.85;;;1.70;;
43327;SDS011;28923;45.412;10.852;2023-06-14T16:28:25;2.78;;;1.90;;
43327;SDS011;28923;45.412;10.852;2023-06-14T16:30:51;2.40;;;2.03;;
43327;SDS011;28923;45.412;10.852;2023-06-14T16:33:16;2.13;;;1.92;;
43327;SDS011;28923;45.412;10.852;2023-06-14T16:35:42;1.83;;;1.73;;
43327;SDS011;28923;45.412;10.852;2023-06-14T16:38:07;2.90;;;2.00;;
43327;SDS011;28923;45.412;10.852;2023-06-14T16:40:32;3.78;;;2.20;;
43327;SDS011;28923;45.412;10.852;2023-06-14T16:42:58;4.53;;;2.25;;
43327;SDS011;28923;45.412;10.852;2023-06-14T16:45:23;2.95;;;2.00;;
43327;SDS011;28923;45.412;10.852;2023-06-14T16:47:50;1.88;;;1.73;;
43327;SDS011;28923;45.412;10.852;2023-06-14T16:50:15;2.25;;;1.60;;
43327;SDS011;28923;45.412;10.852;2023-06-14T16:52:40;3.58;;;2.45;;
43327;SDS011;28923;45.412;10.852;2023-06-14T16:55:06;7.30;;;2.05;;
43327;SDS011;28923;45.412;10.852;2023-06-14T16:57:31;2.13;;;1.90;;
43327;SDS011;28923;45.412;10.852;2023-06-14T16:59:57;2.72;;;1.77;;
43327;SDS011;28923;45.412;10.852;2023-06-14T17:02:23;2.55;;;2.33;;
43327;SDS011;28923;45.412;10.852;2023-06-14T17:04:48;2.17;;;1.98;;
43327;SDS011;28923;45.412;10.852;2023-06-14T17:07:13;3.58;;;2.25;;
43327;SDS011;28923;45.412;10.852;2023-06-14T17:09:39;2.40;;;1.77;;
43327;SDS011;28923;45.412;10.852;2023-06-14T17:12:04;2.42;;;1.90;;
43327;SDS011;28923;45.412;10.852;2023-06-14T17:14:31;2.20;;;2.00;;
43327;SDS011;28923;45.412;10.852;2023-06-14T17:16:56;2.42;;;1.73;;
43327;SDS011;28923;45.412;10.852;2023-06-14T17:19:21;2.50;;;2.00;;
43327;SDS011;28923;45.412;10.852;2023-06-14T17:21:47;2.50;;;2.00;;
43327;SDS011;28923;45.412;10.852;2023-06-14T17:24:17;2.10;;;1.90;;
43327;SDS011;28923;45.412;10.852;2023-06-14T17:26:43;2.47;;;2.00;;
43327;SDS011;28923;45.412;10.852;2023-06-14T17:29:08;5.88;;;2.38;;
43327;SDS011;28923;45.412;10.852;2023-06-14T17:31:33;2.28;;;1.95;;
43327;SDS011;28923;45.412;10.852;2023-06-14T17:33:59;3.10;;;2.33;;
43327;SDS011;28923;45.412;10.852;2023-06-14T17:36:24;3.63;;;2.40;;
43327;SDS011;28923;45.412;10.852;2023-06-14T17:38:50;3.83;;;2.63;;
43327;SDS011;28923;45.412;10.852;2023-06-14T17:41:18;4.88;;;2.70;;
43327;SDS011;28923;45.412;10.852;2023-06-14T17:43:44;3.97;;;2.35;;
43327;SDS011;28923;45.412;10.852;2023-06-14T17:46:09;6.00;;;2.85;;
43327;SDS011;28923;45.412;10.852;2023-06-14T17:48:35;4.75;;;2.85;;
43327;SDS011;28923;45.412;10.852;2023-06-14T17:51:01;6.32;;;2.97;;
43327;SDS011;28923;45.412;10.852;2023-06-14T17:53:26;6.65;;;3.17;;
43327;SDS011;28923;45.412;10.852;2023-06-14T17:55:52;5.75;;;3.10;;
43327;SDS011;28923;45.412;10.852;2023-06-14T17:58:19;5.53;;;3.03;;
43327;SDS011;28923;45.412;10.852;2023-06-14T18:00:45;5.68;;;3.08;;
43327;SDS011;28923;45.412;10.852;2023-06-14T18:03:11;4.82;;;3.00;;
43327;SDS011;28923;45.412;10.852;2023-06-14T18:05:36;3.97;;;3.10;;
43327;SDS011;28923;45.412;10.852;2023-06-14T18:08:02;3.58;;;3.17;;
43327;SDS011;28923;45.412;10.852;2023-06-14T18:10:27;4.03;;;2.40;;
43327;SDS011;28923;45.412;10.852;2023-06-14T18:12:53;10.88;;;2.92;;
43327;SDS011;28923;45.412;10.852;2023-06-14T18:15:18;7.93;;;2.97;;
43327;SDS011;28923;45.412;10.852;2023-06-14T18:17:43;6.38;;;3.08;;
43327;SDS011;28923;45.412;10.852;2023-06-14T18:20:09;4.70;;;3.05;;
43327;SDS011;28923;45.412;10.852;2023-06-14T18:22:34;5.32;;;2.97;;
43327;SDS011;28923;45.412;10.852;2023-06-14T18:25:00;5.55;;;3.20;;
43327;SDS011;28923;45.412;10.852;2023-06-14T18:27:25;7.07;;;2.75;;
43327;SDS011;28923;45.412;10.852;2023-06-14T18:29:50;3.55;;;2.47;;
43327;SDS011;28923;45.412;10.852;2023-06-14T18:32:16;4.88;;;2.85;;
43327;SDS011;28923;45.412;10.852;2023-06-14T18:34:41;5.00;;;2.80;;
43327;SDS011;28923;45.412;10.852;2023-06-14T18:37:06;4.10;;;2.80;;
43327;SDS011;28923;45.412;10.852;2023-06-14T18:39:33;5.07;;;3.05;;
43327;SDS011;28923;45.412;10.852;2023-06-14T18:41:58;4.25;;;2.92;;
43327;SDS011;28923;45.412;10.852;2023-06-14T18:44:29;3.53;;;2.67;;
43327;SDS011;28923;45.412;10.852;2023-06-14T18:46:54;4.85;;;2.83;;
43327;SDS011;28923;45.412;10.852;2023-06-14T18:49:20;5.97;;;2.72;;
43327;SDS011;28923;45.412;10.852;2023-06-14T18:51:45;4.47;;;3.03;;
43327;SDS011;28923;45.412;10.852;2023-06-14T18:54:11;5.93;;;2.75;;
43327;SDS011;28923;45.412;10.852;2023-06-14T18:56:36;5.68;;;2.83;;
43327;SDS011;28923;45.412;10.852;2023-06-14T18:59:03;4.88;;;2.58;;
43327;SDS011;28923;45.412;10.852;2023-06-14T19:01:28;2.80;;;2.42;;
43327;SDS011;28923;45.412;10.852;2023-06-14T19:03:53;4.30;;;2.90;;
43327;SDS011;28923;45.412;10.852;2023-06-14T19:06:19;6.72;;;2.97;;
43327;SDS011;28923;45.412;10.852;2023-06-14T19:08:44;5.88;;;2.72;;
43327;SDS011;28923;45.412;10.852;2023-06-14T19:11:12;5.10;;;2.92;;